Terminal Aerodrome Forecast
Issued by NWS Green Bay, WI

Home | Current Version | Previous Version | Graphics & Text | Print | Product List | Glossary On
Versions: 1 2 3 4 5 6 7 8 9 10 11 12 13 14 15 16 17 18 19 20 21 22 23 24 25 26 27 28 29 30 31
000
FTUS43 KGRB 301720
TAFGRB
TAF
KGRB 301720Z 3018/0118 05012G18KT P6SM SCT100 BKN250
     FM302100 06015G25KT P6SM SCT035 BKN070
     FM010200 04012KT P6SM -RA BKN040 WS010/08030KT
      TEMPO 0104/0108 4SM -RA
     FM011000 02010KT 4SM -RA BKN025 WS010/06030KT
     FM011400 04013G24KT P6SM BKN035
      TEMPO 0114/0116 5SM -RA=

USA.gov is the U.S. government's official web portal to all federal, state and local government web resources and services.